Terminal Aerodrome Forecast
Issued by NWS

Home | Current Version | Previous Version | Text Only | Print | Product List | Glossary On
Versions: 1 2 3 4 5 6 7 8 9 10 11 12 13 14 15 16 17 18 19 20 21 22 23 24 25 26 27 28 29 30 31 32 33 34 35 36 37 38 39 40 41 42 43 44 45 46 47 48 49 50
718
FTUS43 KGRB 201744
TAFATW
TAF
KATW 201744Z 2018/2118 05006KT 1 1/2SM -RA BR OVC002
     FM202000 07005KT 2SM BR OVC003
     FM210200 10005KT 1/2SM FG OVC002
     FM211000 08006KT 1/2SM -DZ FG OVC002
     FM211600 10006KT 1 1/2SM -DZ BR OVC004=

USA.gov is the U.S. government's official web portal to all federal, state and local government web resources and services.